Comanche, Texas
Current Conditions -  °F | °C
As of 12:35 AM on Tuesday 21 Oct 2014 (Local Time) from KMKN Reporting Station
Clear Clear  
Wind Chill: 63°   Ceiling: Unl
Heat Index: 63°   Visibility: 10mi
Dew Point: 58°   Wind: 5mph
Humidity: 84%   Direction: 180°S
Pressure: 30.07"   Gusts: NA
Location:  31.9°N, 98.6°W
Report Text: KMKN 210535Z AUTO 18004KT 10SM CLR 17/15 A3007 RMK AO2 T01720145
Loading
Personal Weather Stations






























Interactive Weather Map
Tropical Storm Tracking
New forecast layout! Learn more

10-Day Weather Forecast

Advertisements
Track Severe Weather on mobile